Details From TTPP - Trinidade Piarco
To SYCJ - Cheddi Jagan Intl
Flight Number -
Tags Decoded
Created
Modified
Stats Distance 310 nm / 575 km
Max Altitude 0 ft / 0 m
Waypoints 4
Social Downloads 6
Likes 0
Share VATSIM

Download

Looking for another format? Having issues loading an existing format? Contact us
Advertisement - Login to hide

Notes

Decoded

Route

TTPP POS ORANI SYCJ

ID Type Via Altitude Latitude Longitude Leg Dist Tot Dist Heading (true) Name
O TTPP APT - 0 ft / 0 m 10.59533˚ -61.35186˚ - 0 nm - -
POS VOR - 0 ft / 0 m 10.46639˚ -61.39236˚ 8 nm 8 nm 197° / 197° PIARCO VOR-DME
ORANI FIX - 0 ft / 0 m 7.48244˚ -59.03106˚ 227 nm 235 nm 142° / 142° -
O SYCJ APT - 0 ft / 0 m 6.49859˚ -58.26244˚ 74 nm 310 nm 142° / 142° -

Altitude Profile

Advertisement - Login to hide

Weather


0- 5 10 15 20 25 30 35+ Temperature / ° C

Clouds and Precipitation
Forecast for 2017-12-15 06:00 UTC. Updated an hour ago

Ground ~20,000 ft ~40,000 ft Winds

TTPP

Details ICAO TTPP (POS)
Name Trinidad/Piarco Intl
Region Trinidad and Tobago
Timezone America/Port_of_Spain (UTC-4.0)
Stats Elevation 57 ft / 17 m (AMSL)
Location 10.595370° -61.337239°
Runways 1
Magnetic Variation 15.001° W

METAR

TTPP 150400Z 10006KT 9999 FEW018 25/22 Q1014 NOSIG

Decode

TAF

Not found

Departure Runways

ID Width Length Bearing (true) Bearing (mag) Surface Threshold Offset Overrun Length
10 151 ft / 46 m 10,486 ft / 3,196 m 89.83° 104.83° Asphalt 0 ft / 0 m 79 ft / 24 m
28 151 ft / 46 m 10,486 ft / 3,196 m 269.84° 284.84° Asphalt 0 ft / 0 m 184 ft / 56 m

SYCJ

Details ICAO SYCJ (GEO)
Name CHEDDI JAGAN INTL
Region Guyana
Timezone America/Guyana (UTC-4.0)
Stats Elevation 95 ft / 29 m (AMSL)
Location 6.498874° -58.254550°
Runways 2
Magnetic Variation 16.390° W

METAR

SYCJ 150400Z VRB02KT CAVOK 23/22 Q1013 NOSIG

Decode

TAF

TAF SYCJ 142339Z 1500/1524 06006KT CAVOK BECMG 1507/1509 VRB06KT 9999 BKN015 BKN038 TEMPO 1507/1513 7000 SHRA

Decode

Destination Runways

ID Width Length Bearing (true) Bearing (mag) Surface Threshold Offset Overrun Length
06 148 ft / 45 m 7,466 ft / 2,276 m 44.78° 61.17° Asphalt 0 ft / 0 m 190 ft / 58 m
11 148 ft / 45 m 4,997 ft / 1,523 m 89.99° 106.38° Asphalt 0 ft / 0 m 0 ft / 0 m
24 148 ft / 45 m 7,466 ft / 2,276 m 224.78° 241.17° Asphalt 0 ft / 0 m 205 ft / 62 m
29 148 ft / 45 m 4,997 ft / 1,523 m 269.99° 286.38° Asphalt 0 ft / 0 m 0 ft / 0 m

Approach Navaids

Runway Type Ident Frequency Range Bearing (true) Bearing (mag) Slope Elevation
06 Localiser ITIM 109.30 MHz 18 nm / 33 km 44.78° 61.17° - 95 ft / 29 m (AMSL)
06 Glidescope ITIM 109.30 MHz 10 nm / 19 km 44.78° 61.17° 2.50° 95 ft / 29 m (AMSL)

Popular Alternatives